createdAt,value
2023-01-08T00:00:50.183Z,2.85
2023-01-08T00:03:17.275Z,2.13
2023-01-08T00:05:44.034Z,1.98
2023-01-08T00:10:38.808Z,1.98
2023-01-08T00:13:06.928Z,2.20
2023-01-08T00:15:34.493Z,1.83
2023-01-08T00:18:01.701Z,2.10
2023-01-08T00:20:29.145Z,1.88
2023-01-08T00:22:55.850Z,1.90
2023-01-08T00:25:22.683Z,1.95
2023-01-08T00:27:49.488Z,2.25
2023-01-08T00:32:42.854Z,2.10
2023-01-08T00:37:36.272Z,1.50
2023-01-08T00:40:03.096Z,1.92
2023-01-08T00:42:29.809Z,2.17
2023-01-08T00:44:56.737Z,1.80
2023-01-08T00:49:50.204Z,1.75
2023-01-08T00:54:43.377Z,1.50
2023-01-08T00:57:10.073Z,1.70
2023-01-08T01:02:03.546Z,1.90
2023-01-08T01:04:30.326Z,2.33
2023-01-08T01:09:23.654Z,1.98
2023-01-08T01:11:50.305Z,2.25
2023-01-08T01:16:43.903Z,1.63
2023-01-08T01:19:15.502Z,1.92
2023-01-08T01:21:42.878Z,2.30
2023-01-08T01:24:13.005Z,2.50
2023-01-08T01:26:39.743Z,2.20
2023-01-08T01:31:33.209Z,2.35
2023-01-08T01:34:00.432Z,2.00
2023-01-08T01:36:27.773Z,2.00
2023-01-08T01:38:56.495Z,1.70
2023-01-08T01:41:25.419Z,2.25
2023-01-08T01:43:52.830Z,2.42
2023-01-08T01:46:25.427Z,2.05
2023-01-08T01:48:56.323Z,2.72
2023-01-08T01:51:29.400Z,2.22
2023-01-08T01:53:56.694Z,2.20
2023-01-08T01:56:23.857Z,2.67
2023-01-08T01:58:50.522Z,2.65
2023-01-08T02:03:44.248Z,2.70
2023-01-08T02:06:20.539Z,2.75
2023-01-08T02:08:59.243Z,2.65
2023-01-08T02:11:41.472Z,2.72
2023-01-08T02:14:32.381Z,2.88
2023-01-08T02:17:09.438Z,2.42
2023-01-08T02:19:51.653Z,3.05
2023-01-08T02:22:47.752Z,2.50
2023-01-08T02:25:33.299Z,2.35
2023-01-08T02:28:02.202Z,2.65
2023-01-08T02:30:30.055Z,2.80
2023-01-08T02:32:56.913Z,2.60
2023-01-08T02:35:23.601Z,2.13
2023-01-08T02:37:50.321Z,2.53
2023-01-08T02:40:29.704Z,2.50
2023-01-08T02:43:17.415Z,3.15
2023-01-08T02:45:54.329Z,3.25
2023-01-08T02:48:29.619Z,3.00
2023-01-08T02:51:01.846Z,2.40
2023-01-08T02:53:38.952Z,2.63
2023-01-08T02:56:10.120Z,2.35
2023-01-08T02:58:38.478Z,2.33
2023-01-08T03:01:09.138Z,2.50
2023-01-08T03:03:38.800Z,2.30
2023-01-08T03:06:10.266Z,1.60
2023-01-08T03:08:40.891Z,2.33
2023-01-08T03:11:10.495Z,1.77
2023-01-08T03:13:56.744Z,1.83
2023-01-08T03:16:35.755Z,2.25
2023-01-08T03:19:09.722Z,2.33
2023-01-08T03:21:38.844Z,3.03
2023-01-08T03:24:07.520Z,4.00
2023-01-08T03:26:37.657Z,2.53
2023-01-08T03:29:06.541Z,2.75
2023-01-08T03:31:35.911Z,2.65
2023-01-08T03:34:04.245Z,2.55
2023-01-08T03:36:33.323Z,2.95
2023-01-08T03:39:28.675Z,3.45
2023-01-08T03:41:59.177Z,6.65
2023-01-08T03:44:26.198Z,3.25
2023-01-08T03:46:55.445Z,3.38
2023-01-08T03:49:26.379Z,2.83
2023-01-08T03:51:53.117Z,3.40
2023-01-08T03:59:15.754Z,3.15
2023-01-08T04:01:42.990Z,2.95
2023-01-08T04:04:11.157Z,2.40
2023-01-08T04:06:38.165Z,3.00
2023-01-08T04:09:04.947Z,2.40
2023-01-08T04:13:59.102Z,2.30
2023-01-08T04:16:25.922Z,2.25
2023-01-08T04:18:52.708Z,2.47
2023-01-08T04:23:45.979Z,3.20
2023-01-08T04:26:12.715Z,2.60
2023-01-08T04:31:10.081Z,2.85
2023-01-08T04:33:37.083Z,2.53
2023-01-08T04:36:05.127Z,3.13
2023-01-08T04:38:31.969Z,2.47
2023-01-08T04:41:03.007Z,2.63
2023-01-08T04:43:31.144Z,2.72
2023-01-08T04:45:59.382Z,2.50
2023-01-08T04:48:26.738Z,3.10
2023-01-08T04:50:53.773Z,3.05
2023-01-08T04:53:20.627Z,2.60
2023-01-08T04:55:47.279Z,2.70
2023-01-08T04:58:14.124Z,2.53
2023-01-08T05:00:40.856Z,3.50
2023-01-08T05:05:35.003Z,2.55
2023-01-08T05:08:01.742Z,2.90
2023-01-08T05:12:59.822Z,3.33
2023-01-08T05:15:27.226Z,3.20
2023-01-08T05:18:01.940Z,2.97
2023-01-08T05:20:29.168Z,2.65
2023-01-08T05:22:56.321Z,3.22
2023-01-08T05:25:23.034Z,2.65
2023-01-08T05:27:49.790Z,2.28
2023-01-08T05:30:16.951Z,2.38
2023-01-08T05:32:43.776Z,2.38
2023-01-08T05:35:10.496Z,2.05
2023-01-08T05:40:05.071Z,1.88
2023-01-08T05:42:35.221Z,2.90
2023-01-08T05:45:06.087Z,2.08
2023-01-08T05:47:33.783Z,2.63
2023-01-08T05:50:00.791Z,2.33
2023-01-08T05:52:28.105Z,2.40
2023-01-08T05:54:54.760Z,2.22
2023-01-08T05:57:21.928Z,2.00
2023-01-08T05:59:48.864Z,2.38
2023-01-08T06:02:15.598Z,2.35
2023-01-08T06:07:09.083Z,2.55
2023-01-08T06:09:35.844Z,2.75
2023-01-08T06:14:29.197Z,1.48
2023-01-08T06:19:22.688Z,1.73
2023-01-08T06:21:49.659Z,2.10
2023-01-08T06:24:16.336Z,1.73
2023-01-08T06:29:09.643Z,2.08
2023-01-08T06:34:03.135Z,2.05
2023-01-08T06:36:30.099Z,1.95
2023-01-08T06:41:23.410Z,2.28
2023-01-08T06:46:16.921Z,2.33
2023-01-08T06:51:10.483Z,2.33
2023-01-08T06:53:37.156Z,3.47
2023-01-08T06:56:04.898Z,2.50
2023-01-08T06:58:31.616Z,2.53
2023-01-08T07:03:26.044Z,2.28
2023-01-08T07:05:52.989Z,2.25
2023-01-08T07:08:19.667Z,2.50
2023-01-08T07:10:46.544Z,2.65
2023-01-08T07:13:13.559Z,2.22
2023-01-08T07:15:41.549Z,2.83
2023-01-08T07:18:10.196Z,2.72
2023-01-08T07:20:37.137Z,3.38
2023-01-08T07:23:05.469Z,2.40
2023-01-08T07:25:32.974Z,2.95
2023-01-08T07:28:00.236Z,2.42
2023-01-08T07:30:30.253Z,2.63
2023-01-08T07:33:01.115Z,1.73
2023-01-08T07:35:29.275Z,2.00
2023-01-08T07:37:56.290Z,2.42
2023-01-08T07:40:23.153Z,2.20
2023-01-08T07:43:00.836Z,2.00
2023-01-08T07:45:28.567Z,2.17
2023-01-08T07:47:58.428Z,2.03
2023-01-08T07:50:26.001Z,1.73
2023-01-08T07:52:52.741Z,2.25
2023-01-08T07:57:46.268Z,2.08
2023-01-08T08:02:41.489Z,1.92
2023-01-08T08:05:08.748Z,2.03
2023-01-08T08:07:36.053Z,2.88
2023-01-08T08:10:04.031Z,3.15
2023-01-08T08:12:30.983Z,2.30
2023-01-08T08:14:57.755Z,2.40
2023-01-08T08:19:51.352Z,3.30
2023-01-08T08:24:44.932Z,3.03
2023-01-08T08:29:38.274Z,3.25
2023-01-08T08:32:05.073Z,3.78
2023-01-08T08:34:33.596Z,3.92
2023-01-08T08:37:00.283Z,2.97
2023-01-08T08:39:26.946Z,2.55
2023-01-08T08:44:20.241Z,2.63
2023-01-08T08:46:46.946Z,2.72
2023-01-08T08:51:40.263Z,2.13
2023-01-08T08:54:06.899Z,2.10
2023-01-08T08:56:33.640Z,2.67
2023-01-08T08:59:00.337Z,2.20
2023-01-08T09:03:53.852Z,3.45
2023-01-08T09:06:20.575Z,3.65
2023-01-08T09:11:14.581Z,3.75
2023-01-08T09:13:41.313Z,4.38
2023-01-08T09:16:08.293Z,4.68
2023-01-08T09:18:35.038Z,3.78
2023-01-08T09:23:34.054Z,4.22
2023-01-08T09:26:02.110Z,4.53
2023-01-08T09:28:29.115Z,4.68
2023-01-08T09:30:55.854Z,5.20
2023-01-08T09:35:49.358Z,4.78
2023-01-08T09:38:16.049Z,4.35
2023-01-08T09:41:05.109Z,4.97
2023-01-08T09:43:34.924Z,4.65
2023-01-08T09:46:05.795Z,4.20
2023-01-08T09:48:36.454Z,4.47
2023-01-08T09:51:03.469Z,4.32
2023-01-08T09:53:30.794Z,3.90
2023-01-08T09:56:10.792Z,4.28
2023-01-08T09:58:55.493Z,4.05
2023-01-08T10:01:25.184Z,4.10
2023-01-08T10:04:14.784Z,4.22
2023-01-08T10:06:46.690Z,4.47
2023-01-08T10:09:14.785Z,4.40
2023-01-08T10:11:45.589Z,3.70
2023-01-08T10:14:29.869Z,3.60
2023-01-08T10:17:03.117Z,3.28
2023-01-08T10:19:29.891Z,3.83
2023-01-08T10:21:57.381Z,3.33
2023-01-08T10:24:36.112Z,3.20
2023-01-08T10:27:08.243Z,3.05
2023-01-08T10:29:34.972Z,3.80
2023-01-08T10:32:14.289Z,3.17
2023-01-08T10:34:50.901Z,3.35
2023-01-08T10:37:36.444Z,4.85
2023-01-08T10:40:43.900Z,4.40
2023-01-08T10:43:18.502Z,3.90
2023-01-08T10:45:59.924Z,3.90
2023-01-08T10:48:37.491Z,3.47
2023-01-08T10:51:20.918Z,3.00
2023-01-08T10:53:47.749Z,4.60
2023-01-08T10:58:49.589Z,7.25
2023-01-08T11:01:22.129Z,6.32
2023-01-08T11:03:57.740Z,6.50
2023-01-08T11:06:27.936Z,6.93
2023-01-08T11:09:03.491Z,5.75
2023-01-08T11:11:38.140Z,5.72
2023-01-08T11:14:27.802Z,5.15
2023-01-08T11:16:55.615Z,18.15
2023-01-08T11:19:33.520Z,14.65
2023-01-08T11:22:21.852Z,8.10
2023-01-08T11:24:50.213Z,6.72
2023-01-08T11:27:26.783Z,5.60
2023-01-08T11:30:02.447Z,5.45
2023-01-08T11:32:44.545Z,4.38
2023-01-08T11:35:13.815Z,5.03
2023-01-08T11:37:53.479Z,4.05
2023-01-08T11:40:44.238Z,4.68
2023-01-08T11:43:15.185Z,5.15
2023-01-08T11:46:26.172Z,5.00
2023-01-08T11:49:32.551Z,5.57
2023-01-08T11:52:14.344Z,5.22
2023-01-08T11:55:06.119Z,4.40
2023-01-08T11:57:59.009Z,4.53
2023-01-08T12:00:46.709Z,4.75
2023-01-08T12:03:30.570Z,4.20
2023-01-08T12:06:36.932Z,4.03
2023-01-08T12:09:21.868Z,4.47
2023-01-08T12:12:16.317Z,5.22
2023-01-08T12:14:54.106Z,4.63
2023-01-08T12:17:38.832Z,5.03
2023-01-08T12:20:20.933Z,4.22
2023-01-08T12:23:00.601Z,4.80
2023-01-08T12:25:31.467Z,6.45
2023-01-08T12:28:22.375Z,7.25
2023-01-08T12:30:55.019Z,7.70
2023-01-08T12:33:37.394Z,5.78
2023-01-08T12:36:10.765Z,5.38
2023-01-08T12:38:44.475Z,5.53
2023-01-08T12:41:14.046Z,5.00
2023-01-08T12:43:59.184Z,4.57
2023-01-08T12:46:29.187Z,6.05
2023-01-08T12:48:57.090Z,4.18
2023-01-08T12:51:38.453Z,3.95
2023-01-08T12:54:11.298Z,5.18
2023-01-08T12:56:59.445Z,4.00
2023-01-08T12:59:47.690Z,4.47
2023-01-08T13:02:17.425Z,4.28
2023-01-08T13:04:46.771Z,4.43
2023-01-08T13:07:25.497Z,3.85
2023-01-08T13:09:57.020Z,4.28
2023-01-08T13:12:34.118Z,4.55
2023-01-08T13:15:01.270Z,4.45
2023-01-08T13:17:28.937Z,3.58
2023-01-08T13:20:00.897Z,4.88
2023-01-08T13:22:30.957Z,4.85
2023-01-08T13:25:16.985Z,4.55
2023-01-08T13:27:45.405Z,4.85
2023-01-08T13:30:32.692Z,4.35
2023-01-08T13:32:59.775Z,5.53
2023-01-08T13:35:30.070Z,4.65
2023-01-08T13:38:15.236Z,4.43
2023-01-08T13:40:44.739Z,4.68
2023-01-08T13:43:24.408Z,4.15
2023-01-08T13:46:00.120Z,4.93
2023-01-08T13:48:29.857Z,4.10
2023-01-08T13:50:56.937Z,4.63
2023-01-08T13:53:24.591Z,4.53
2023-01-08T13:56:08.587Z,3.78
2023-01-08T13:58:45.354Z,3.72
2023-01-08T14:01:13.286Z,4.07
2023-01-08T14:03:46.253Z,4.75
2023-01-08T14:06:28.101Z,5.15
2023-01-08T14:09:00.416Z,4.35
2023-01-08T14:11:32.253Z,4.00
2023-01-08T14:13:59.470Z,4.50
2023-01-08T14:16:26.394Z,4.32
2023-01-08T14:18:58.230Z,5.10
2023-01-08T14:21:25.433Z,4.90
2023-01-08T14:23:53.960Z,5.35
2023-01-08T14:26:31.234Z,5.18
2023-01-08T14:28:58.492Z,5.95
2023-01-08T14:31:27.191Z,5.35
2023-01-08T14:33:57.015Z,5.43
2023-01-08T14:36:24.042Z,4.70
2023-01-08T14:38:50.984Z,5.15
2023-01-08T14:41:53.038Z,5.03
2023-01-08T14:44:36.214Z,4.97
2023-01-08T14:47:05.883Z,5.30
2023-01-08T14:49:35.057Z,5.90
2023-01-08T14:52:03.075Z,5.57
2023-01-08T14:54:34.544Z,4.70
2023-01-08T14:57:02.566Z,4.47
2023-01-08T14:59:33.617Z,4.80
2023-01-08T15:02:02.515Z,5.03
2023-01-08T15:04:30.959Z,3.88
2023-01-08T15:07:08.436Z,4.97
2023-01-08T15:09:36.377Z,4.47
2023-01-08T15:12:21.967Z,4.35
2023-01-08T15:14:49.055Z,4.28
2023-01-08T15:17:19.825Z,5.28
2023-01-08T15:19:50.291Z,4.50
2023-01-08T15:22:33.431Z,5.45
2023-01-08T15:25:02.971Z,6.03
2023-01-08T15:27:36.879Z,5.05
2023-01-08T15:30:05.737Z,5.00
2023-01-08T15:32:37.459Z,4.65
2023-01-08T15:35:18.384Z,4.38
2023-01-08T15:37:45.386Z,4.82
2023-01-08T15:40:12.933Z,5.38
2023-01-08T15:42:58.503Z,5.28
2023-01-08T15:45:32.254Z,4.47
2023-01-08T15:47:59.514Z,5.00
2023-01-08T15:50:28.327Z,4.30
2023-01-08T15:53:00.913Z,4.93
2023-01-08T15:55:27.618Z,4.82
2023-01-08T15:58:31.954Z,4.60
2023-01-08T16:03:25.802Z,3.72
2023-01-08T16:05:52.601Z,4.40
2023-01-08T16:10:46.010Z,4.55
2023-01-08T16:13:13.160Z,4.75
2023-01-08T16:15:39.955Z,3.40
2023-01-08T16:20:33.463Z,4.55
2023-01-08T16:23:00.223Z,4.13
2023-01-08T16:27:54.082Z,4.95
2023-01-08T16:30:20.968Z,4.32
2023-01-08T16:32:52.307Z,4.50
2023-01-08T16:35:20.536Z,4.93
2023-01-08T16:37:47.548Z,5.70
2023-01-08T16:40:14.934Z,28.73
2023-01-08T16:42:41.715Z,15.45
2023-01-08T16:45:08.836Z,11.30
2023-01-08T16:47:38.472Z,10.07
2023-01-08T16:50:05.927Z,7.07
2023-01-08T16:52:32.650Z,8.32
2023-01-08T16:54:59.433Z,8.75
2023-01-08T16:57:26.278Z,6.90
2023-01-08T17:02:19.695Z,7.57
2023-01-08T17:04:46.325Z,10.57
2023-01-08T17:07:14.007Z,12.02
2023-01-08T17:09:40.704Z,9.27
2023-01-08T17:14:35.408Z,7.32
2023-01-08T17:17:02.327Z,53.03
2023-01-08T17:21:55.780Z,61.85
2023-01-08T17:24:22.599Z,36.78
2023-01-08T17:29:15.881Z,12.60
2023-01-08T17:31:42.686Z,7.47
2023-01-08T17:36:40.139Z,8.20
2023-01-08T17:39:07.300Z,8.40
2023-01-08T17:41:54.007Z,7.50
2023-01-08T17:44:20.959Z,7.47
2023-01-08T17:46:47.667Z,13.65
2023-01-08T17:51:42.701Z,10.23
2023-01-08T17:54:15.270Z,10.82
2023-01-08T17:56:42.547Z,9.25
2023-01-08T17:59:13.676Z,7.82
2023-01-08T18:01:40.438Z,7.40
2023-01-08T18:06:34.230Z,16.90
2023-01-08T18:09:00.940Z,9.38
2023-01-08T18:13:58.680Z,9.00
2023-01-08T18:16:25.783Z,7.85
2023-01-08T18:18:53.080Z,8.38
2023-01-08T18:21:19.785Z,8.73
2023-01-08T18:23:47.501Z,8.35
2023-01-08T18:26:15.983Z,8.70
2023-01-08T18:28:42.794Z,9.80
2023-01-08T18:31:11.315Z,7.97
2023-01-08T18:33:38.781Z,7.43
2023-01-08T18:36:09.333Z,6.90
2023-01-08T18:38:38.514Z,7.15
2023-01-08T18:41:06.119Z,6.57
2023-01-08T18:43:35.388Z,6.43
2023-01-08T18:46:04.528Z,7.05
2023-01-08T18:48:32.119Z,7.38
2023-01-08T18:51:03.900Z,7.32
2023-01-08T18:53:31.031Z,7.15
2023-01-08T18:56:01.704Z,8.30
2023-01-08T18:58:29.593Z,9.07
2023-01-08T19:01:01.644Z,8.70
2023-01-08T19:03:28.316Z,9.75
2023-01-08T19:05:54.927Z,9.63
2023-01-08T19:08:21.806Z,8.45
2023-01-08T19:10:50.038Z,8.75
2023-01-08T19:13:17.468Z,8.98
2023-01-08T19:15:44.290Z,8.48
2023-01-08T19:20:43.159Z,8.05
2023-01-08T19:23:10.526Z,10.73
2023-01-08T19:25:39.702Z,16.92
2023-01-08T19:28:07.151Z,11.45
2023-01-08T19:30:34.326Z,11.30
2023-01-08T19:33:01.443Z,11.68
2023-01-08T19:35:28.822Z,10.23
2023-01-08T19:37:55.614Z,9.68
2023-01-08T19:43:07.697Z,9.63
2023-01-08T19:45:37.501Z,8.45
2023-01-08T19:48:04.482Z,11.55
2023-01-08T19:50:31.926Z,7.97
2023-01-08T19:52:58.754Z,8.48
2023-01-08T19:57:52.252Z,5.75
2023-01-08T20:02:51.205Z,6.15
2023-01-08T20:05:18.220Z,5.95
2023-01-08T20:07:45.011Z,7.03
2023-01-08T20:10:12.641Z,9.23
2023-01-08T20:12:39.678Z,7.18
2023-01-08T20:17:33.215Z,6.50
2023-01-08T20:22:27.610Z,7.95
2023-01-08T20:24:55.945Z,8.07
2023-01-08T20:27:23.816Z,8.88
2023-01-08T20:32:18.799Z,7.60
2023-01-08T20:34:45.567Z,8.38
2023-01-08T20:39:39.008Z,7.82
2023-01-08T20:42:06.347Z,7.70
2023-01-08T20:44:33.639Z,7.88
2023-01-08T20:47:01.304Z,7.93
2023-01-08T20:49:29.435Z,8.90
2023-01-08T20:51:59.864Z,7.57
2023-01-08T20:54:27.836Z,9.25
2023-01-08T20:56:58.970Z,6.85
2023-01-08T20:59:26.280Z,8.20
2023-01-08T21:01:53.539Z,8.82
2023-01-08T21:04:21.294Z,9.60
2023-01-08T21:06:48.059Z,8.88
2023-01-08T21:11:43.468Z,8.13
2023-01-08T21:14:11.023Z,9.15
2023-01-08T21:16:40.289Z,8.73
2023-01-08T21:19:10.026Z,8.73
2023-01-08T21:21:40.011Z,8.50
2023-01-08T21:24:08.893Z,9.38
2023-01-08T21:26:36.949Z,8.30
2023-01-08T21:29:05.922Z,7.95
2023-01-08T21:31:33.858Z,8.35
2023-01-08T21:34:02.775Z,7.20
2023-01-08T21:36:31.632Z,7.47
2023-01-08T21:39:00.332Z,7.40
2023-01-08T21:41:46.897Z,7.15
2023-01-08T21:44:41.470Z,6.03
2023-01-08T21:47:11.131Z,5.95
2023-01-08T21:49:38.461Z,5.88
2023-01-08T21:52:24.440Z,5.18
2023-01-08T21:54:52.119Z,5.50
2023-01-08T21:57:19.360Z,6.05
2023-01-08T21:59:50.089Z,6.07
2023-01-08T22:02:19.159Z,5.53
2023-01-08T22:04:46.427Z,5.32
2023-01-08T22:07:14.174Z,5.63
2023-01-08T22:09:40.848Z,6.47
2023-01-08T22:14:35.167Z,7.68
2023-01-08T22:17:03.929Z,7.05
2023-01-08T22:19:30.741Z,7.43
2023-01-08T22:24:23.962Z,6.70
2023-01-08T22:26:50.645Z,6.38
2023-01-08T22:29:17.415Z,7.20
2023-01-08T22:34:14.182Z,6.50
2023-01-08T22:36:40.933Z,6.75
2023-01-08T22:41:34.263Z,6.65
2023-01-08T22:44:00.980Z,7.03
2023-01-08T22:48:54.705Z,7.10
2023-01-08T22:53:56.391Z,7.15
2023-01-08T22:56:23.933Z,6.63
2023-01-08T22:58:51.102Z,6.00
2023-01-08T23:01:23.489Z,5.82
2023-01-08T23:03:56.922Z,6.40
2023-01-08T23:06:25.470Z,6.10
2023-01-08T23:08:52.639Z,7.63
2023-01-08T23:11:21.085Z,7.03
2023-01-08T23:13:49.062Z,7.22
2023-01-08T23:16:17.730Z,6.88
2023-01-08T23:18:44.775Z,7.15
2023-01-08T23:21:20.203Z,5.50
2023-01-08T23:23:47.522Z,5.28
2023-01-08T23:26:20.439Z,5.25
2023-01-08T23:28:48.019Z,4.55
2023-01-08T23:31:18.432Z,3.67
2023-01-08T23:33:45.577Z,3.78
2023-01-08T23:36:18.043Z,4.10
2023-01-08T23:38:46.125Z,3.80
2023-01-08T23:41:13.018Z,2.78
2023-01-08T23:43:39.810Z,4.75
2023-01-08T23:48:33.859Z,4.90
2023-01-08T23:53:27.394Z,5.07
2023-01-08T23:58:20.980Z,3.72
